﻿<?xml version="1.0" encoding="UTF-8" standalone="no" ?>
<gpx xmlns="http://www.topografix.com/GPX/1/1" creator="CompeGPS" version="1.1" xmlns:xsi="http://www.w3.org/2001/XMLSchema-instance" xsi:schemaLocation="http://www.topografix.com/GPX/1/1 http://www.topografix.com/GPX/1/1/gpx.xsd http://www.garmin.com/xmlschemas/GpxExtensions/v3 http://www.garmin.com/xmlschemas/GpxExtensionsv3.xsd http://www.garmin.com/xmlschemas/TrackPointExtension/v1 http://www.garmin.com/xmlschemas/TrackPointExtensionv1.xsd" xmlns:gpxtpx="http://www.garmin.com/xmlschemas/TrackPointExtension/v1">
  <metadata>
    <link href="http://www.compegps.com">
      <text>CompeGPS TEAM, SL</text>
    </link>
    <time>2015-07-26T18:10:08Z</time>
    <bounds maxlat="43.610731" maxlon="1.434445" minlat="43.603797" minlon="1.415153"/>
  </metadata>
  <trk>
    <name>amidonniers</name>
    <trkseg>
      <trkpt lat="43.610438" lon="1.415347">
        <ele>136.5</ele>
        <time>2015-07-26T13:32:09Z</time>
      </trkpt>
      <trkpt lat="43.610369" lon="1.415413">
        <ele>136.4</ele>
        <time>2015-07-26T13:32:35Z</time>
      </trkpt>
      <trkpt lat="43.610302" lon="1.415632">
        <ele>136.1</ele>
        <time>2015-07-26T13:33:56Z</time>
      </trkpt>
      <trkpt lat="43.610277" lon="1.415770">
        <ele>137.2</ele>
        <time>2015-07-26T13:35:07Z</time>
      </trkpt>
      <trkpt lat="43.610258" lon="1.415885">
        <ele>133.8</ele>
        <time>2015-07-26T13:37:32Z</time>
      </trkpt>
      <trkpt lat="43.610239" lon="1.416014">
        <ele>133.5</ele>
        <time>2015-07-26T13:37:43Z</time>
      </trkpt>
      <trkpt lat="43.610243" lon="1.416145">
        <ele>133.6</ele>
        <time>2015-07-26T13:37:53Z</time>
      </trkpt>
      <trkpt lat="43.610251" lon="1.416283">
        <ele>135.2</ele>
        <time>2015-07-26T13:38:05Z</time>
      </trkpt>
      <trkpt lat="43.610272" lon="1.416400">
        <ele>136.9</ele>
        <time>2015-07-26T13:38:14Z</time>
      </trkpt>
      <trkpt lat="43.610285" lon="1.416531">
        <ele>137.7</ele>
        <time>2015-07-26T13:38:22Z</time>
      </trkpt>
      <trkpt lat="43.610298" lon="1.416657">
        <ele>138.6</ele>
        <time>2015-07-26T13:38:30Z</time>
      </trkpt>
      <trkpt lat="43.610306" lon="1.416773">
        <ele>138.9</ele>
        <time>2015-07-26T13:38:38Z</time>
      </trkpt>
      <trkpt lat="43.610327" lon="1.416905">
        <ele>138.8</ele>
        <time>2015-07-26T13:38:46Z</time>
      </trkpt>
      <trkpt lat="43.610355" lon="1.417033">
        <ele>138.1</ele>
        <time>2015-07-26T13:38:55Z</time>
      </trkpt>
      <trkpt lat="43.610386" lon="1.417166">
        <ele>137.5</ele>
        <time>2015-07-26T13:39:04Z</time>
      </trkpt>
      <trkpt lat="43.610418" lon="1.417289">
        <ele>136.6</ele>
        <time>2015-07-26T13:39:13Z</time>
      </trkpt>
      <trkpt lat="43.610436" lon="1.417409">
        <ele>136.4</ele>
        <time>2015-07-26T13:39:21Z</time>
      </trkpt>
      <trkpt lat="43.610445" lon="1.417529">
        <ele>136.7</ele>
        <time>2015-07-26T13:39:29Z</time>
      </trkpt>
      <trkpt lat="43.610456" lon="1.417635">
        <ele>137.6</ele>
        <time>2015-07-26T13:39:41Z</time>
      </trkpt>
      <trkpt lat="43.610481" lon="1.417751">
        <ele>138.6</ele>
        <time>2015-07-26T13:39:49Z</time>
      </trkpt>
      <trkpt lat="43.610501" lon="1.417878">
        <ele>139.1</ele>
        <time>2015-07-26T13:39:58Z</time>
      </trkpt>
      <trkpt lat="43.610519" lon="1.417996">
        <ele>139.5</ele>
        <time>2015-07-26T13:40:06Z</time>
      </trkpt>
      <trkpt lat="43.610533" lon="1.418114">
        <ele>140.1</ele>
        <time>2015-07-26T13:40:14Z</time>
      </trkpt>
      <trkpt lat="43.610579" lon="1.418209">
        <ele>139.0</ele>
        <time>2015-07-26T13:40:43Z</time>
      </trkpt>
      <trkpt lat="43.610600" lon="1.418327">
        <ele>137.5</ele>
        <time>2015-07-26T13:41:02Z</time>
      </trkpt>
      <trkpt lat="43.610612" lon="1.418401">
        <ele>141.6</ele>
        <time>2015-07-26T13:44:39Z</time>
      </trkpt>
      <trkpt lat="43.610675" lon="1.418505">
        <ele>140.3</ele>
        <time>2015-07-26T13:44:51Z</time>
      </trkpt>
      <trkpt lat="43.610730" lon="1.418530">
        <ele>139.7</ele>
        <time>2015-07-26T13:45:07Z</time>
      </trkpt>
      <trkpt lat="43.610707" lon="1.418647">
        <ele>139.9</ele>
        <time>2015-07-26T13:45:20Z</time>
      </trkpt>
      <trkpt lat="43.610619" lon="1.418771">
        <ele>141.6</ele>
        <time>2015-07-26T13:45:33Z</time>
      </trkpt>
      <trkpt lat="43.610592" lon="1.418890">
        <ele>143.0</ele>
        <time>2015-07-26T13:45:43Z</time>
      </trkpt>
      <trkpt lat="43.610565" lon="1.419020">
        <ele>143.5</ele>
        <time>2015-07-26T13:45:53Z</time>
      </trkpt>
      <trkpt lat="43.610507" lon="1.419120">
        <ele>143.1</ele>
        <time>2015-07-26T13:46:04Z</time>
      </trkpt>
      <trkpt lat="43.610482" lon="1.419202">
        <ele>145.3</ele>
        <time>2015-07-26T13:46:38Z</time>
      </trkpt>
      <trkpt lat="43.610506" lon="1.419311">
        <ele>152.7</ele>
        <time>2015-07-26T13:48:20Z</time>
      </trkpt>
      <trkpt lat="43.610482" lon="1.419403">
        <ele>151.6</ele>
        <time>2015-07-26T13:49:24Z</time>
      </trkpt>
      <trkpt lat="43.610353" lon="1.419479">
        <ele>151.4</ele>
        <time>2015-07-26T13:49:36Z</time>
      </trkpt>
      <trkpt lat="43.610266" lon="1.419594">
        <ele>150.3</ele>
        <time>2015-07-26T13:49:51Z</time>
      </trkpt>
      <trkpt lat="43.610173" lon="1.419727">
        <ele>149.5</ele>
        <time>2015-07-26T13:50:11Z</time>
      </trkpt>
      <trkpt lat="43.610102" lon="1.419880">
        <ele>149.0</ele>
        <time>2015-07-26T13:50:26Z</time>
      </trkpt>
      <trkpt lat="43.610060" lon="1.420037">
        <ele>148.0</ele>
        <time>2015-07-26T13:50:38Z</time>
      </trkpt>
      <trkpt lat="43.609989" lon="1.420170">
        <ele>146.8</ele>
        <time>2015-07-26T13:50:50Z</time>
      </trkpt>
      <trkpt lat="43.609938" lon="1.420280">
        <ele>145.3</ele>
        <time>2015-07-26T13:51:01Z</time>
      </trkpt>
      <trkpt lat="43.609926" lon="1.420492">
        <ele>146.8</ele>
        <time>2015-07-26T13:52:46Z</time>
      </trkpt>
      <trkpt lat="43.609879" lon="1.420623">
        <ele>146.3</ele>
        <time>2015-07-26T13:52:58Z</time>
      </trkpt>
      <trkpt lat="43.609794" lon="1.420793">
        <ele>145.6</ele>
        <time>2015-07-26T13:53:12Z</time>
      </trkpt>
      <trkpt lat="43.609741" lon="1.420924">
        <ele>145.4</ele>
        <time>2015-07-26T13:53:24Z</time>
      </trkpt>
      <trkpt lat="43.609678" lon="1.421071">
        <ele>144.8</ele>
        <time>2015-07-26T13:53:36Z</time>
      </trkpt>
      <trkpt lat="43.609600" lon="1.421254">
        <ele>144.5</ele>
        <time>2015-07-26T13:53:48Z</time>
      </trkpt>
      <trkpt lat="43.609552" lon="1.421417">
        <ele>144.4</ele>
        <time>2015-07-26T13:54:00Z</time>
      </trkpt>
      <trkpt lat="43.609514" lon="1.421581">
        <ele>143.9</ele>
        <time>2015-07-26T13:54:13Z</time>
      </trkpt>
      <trkpt lat="43.609489" lon="1.421726">
        <ele>144.0</ele>
        <time>2015-07-26T13:54:48Z</time>
      </trkpt>
      <trkpt lat="43.609420" lon="1.421862">
        <ele>142.7</ele>
        <time>2015-07-26T13:55:01Z</time>
      </trkpt>
      <trkpt lat="43.609356" lon="1.421956">
        <ele>140.6</ele>
        <time>2015-07-26T13:55:19Z</time>
      </trkpt>
      <trkpt lat="43.609349" lon="1.422083">
        <ele>137.4</ele>
        <time>2015-07-26T13:56:37Z</time>
      </trkpt>
      <trkpt lat="43.609319" lon="1.422199">
        <ele>138.6</ele>
        <time>2015-07-26T13:56:49Z</time>
      </trkpt>
      <trkpt lat="43.609251" lon="1.422343">
        <ele>139.1</ele>
        <time>2015-07-26T13:57:03Z</time>
      </trkpt>
      <trkpt lat="43.609188" lon="1.422509">
        <ele>139.1</ele>
        <time>2015-07-26T13:57:15Z</time>
      </trkpt>
      <trkpt lat="43.609157" lon="1.422661">
        <ele>140.0</ele>
        <time>2015-07-26T13:57:28Z</time>
      </trkpt>
      <trkpt lat="43.609130" lon="1.422843">
        <ele>141.4</ele>
        <time>2015-07-26T13:57:42Z</time>
      </trkpt>
      <trkpt lat="43.609055" lon="1.422935">
        <ele>143.8</ele>
        <time>2015-07-26T13:58:38Z</time>
      </trkpt>
      <trkpt lat="43.608996" lon="1.422980">
        <ele>145.1</ele>
        <time>2015-07-26T13:59:09Z</time>
      </trkpt>
      <trkpt lat="43.608975" lon="1.423136">
        <ele>144.8</ele>
        <time>2015-07-26T13:59:24Z</time>
      </trkpt>
      <trkpt lat="43.608956" lon="1.423198">
        <ele>144.9</ele>
        <time>2015-07-26T13:59:59Z</time>
      </trkpt>
      <trkpt lat="43.608905" lon="1.423274">
        <ele>146.4</ele>
        <time>2015-07-26T14:00:32Z</time>
      </trkpt>
      <trkpt lat="43.608872" lon="1.423430">
        <ele>146.3</ele>
        <time>2015-07-26T14:00:45Z</time>
      </trkpt>
      <trkpt lat="43.608863" lon="1.423525">
        <ele>146.1</ele>
        <time>2015-07-26T14:01:06Z</time>
      </trkpt>
      <trkpt lat="43.608802" lon="1.423569">
        <ele>144.1</ele>
        <time>2015-07-26T14:01:31Z</time>
      </trkpt>
      <trkpt lat="43.608784" lon="1.423604">
        <ele>144.1</ele>
        <time>2015-07-26T14:01:51Z</time>
      </trkpt>
      <trkpt lat="43.608780" lon="1.423763">
        <ele>145.1</ele>
        <time>2015-07-26T14:02:06Z</time>
      </trkpt>
      <trkpt lat="43.608762" lon="1.424045">
        <ele>147.9</ele>
        <time>2015-07-26T14:02:46Z</time>
      </trkpt>
      <trkpt lat="43.608663" lon="1.424167">
        <ele>147.2</ele>
        <time>2015-07-26T14:02:57Z</time>
      </trkpt>
      <trkpt lat="43.608616" lon="1.424300">
        <ele>146.6</ele>
        <time>2015-07-26T14:03:13Z</time>
      </trkpt>
      <trkpt lat="43.608563" lon="1.424519">
        <ele>147.1</ele>
        <time>2015-07-26T14:03:28Z</time>
      </trkpt>
      <trkpt lat="43.608492" lon="1.424710">
        <ele>147.4</ele>
        <time>2015-07-26T14:03:42Z</time>
      </trkpt>
      <trkpt lat="43.608494" lon="1.424813">
        <ele>148.0</ele>
        <time>2015-07-26T14:04:02Z</time>
      </trkpt>
      <trkpt lat="43.608401" lon="1.424966">
        <ele>147.4</ele>
        <time>2015-07-26T14:04:22Z</time>
      </trkpt>
      <trkpt lat="43.608326" lon="1.425062">
        <ele>146.8</ele>
        <time>2015-07-26T14:04:38Z</time>
      </trkpt>
      <trkpt lat="43.608335" lon="1.425162">
        <ele>146.2</ele>
        <time>2015-07-26T14:05:05Z</time>
      </trkpt>
      <trkpt lat="43.608323" lon="1.425272">
        <ele>150.8</ele>
        <time>2015-07-26T14:06:09Z</time>
      </trkpt>
      <trkpt lat="43.608304" lon="1.425385">
        <ele>152.0</ele>
        <time>2015-07-26T14:06:32Z</time>
      </trkpt>
      <trkpt lat="43.608228" lon="1.425481">
        <ele>151.0</ele>
        <time>2015-07-26T14:06:45Z</time>
      </trkpt>
      <trkpt lat="43.608139" lon="1.425540">
        <ele>147.5</ele>
        <time>2015-07-26T14:06:58Z</time>
      </trkpt>
      <trkpt lat="43.608132" lon="1.425681">
        <ele>146.0</ele>
        <time>2015-07-26T14:07:10Z</time>
      </trkpt>
      <trkpt lat="43.608087" lon="1.425813">
        <ele>143.1</ele>
        <time>2015-07-26T14:07:25Z</time>
      </trkpt>
      <trkpt lat="43.608059" lon="1.425939">
        <ele>140.9</ele>
        <time>2015-07-26T14:07:41Z</time>
      </trkpt>
      <trkpt lat="43.607994" lon="1.426029">
        <ele>141.1</ele>
        <time>2015-07-26T14:07:57Z</time>
      </trkpt>
      <trkpt lat="43.607910" lon="1.426149">
        <ele>141.0</ele>
        <time>2015-07-26T14:08:12Z</time>
      </trkpt>
      <trkpt lat="43.607917" lon="1.426187">
        <ele>142.1</ele>
        <time>2015-07-26T14:08:32Z</time>
      </trkpt>
      <trkpt lat="43.607913" lon="1.426302">
        <ele>144.8</ele>
        <time>2015-07-26T14:08:52Z</time>
      </trkpt>
      <trkpt lat="43.607899" lon="1.426453">
        <ele>145.0</ele>
        <time>2015-07-26T14:09:07Z</time>
      </trkpt>
      <trkpt lat="43.607852" lon="1.426587">
        <ele>144.1</ele>
        <time>2015-07-26T14:09:22Z</time>
      </trkpt>
      <trkpt lat="43.607790" lon="1.426749">
        <ele>143.1</ele>
        <time>2015-07-26T14:09:35Z</time>
      </trkpt>
      <trkpt lat="43.607738" lon="1.426932">
        <ele>141.9</ele>
        <time>2015-07-26T14:09:48Z</time>
      </trkpt>
      <trkpt lat="43.607660" lon="1.427094">
        <ele>140.6</ele>
        <time>2015-07-26T14:10:02Z</time>
      </trkpt>
      <trkpt lat="43.607593" lon="1.427258">
        <ele>139.3</ele>
        <time>2015-07-26T14:10:15Z</time>
      </trkpt>
      <trkpt lat="43.607537" lon="1.427417">
        <ele>139.2</ele>
        <time>2015-07-26T14:10:28Z</time>
      </trkpt>
      <trkpt lat="43.607462" lon="1.427565">
        <ele>138.7</ele>
        <time>2015-07-26T14:10:40Z</time>
      </trkpt>
      <trkpt lat="43.607419" lon="1.427779">
        <ele>139.5</ele>
        <time>2015-07-26T14:10:52Z</time>
      </trkpt>
      <trkpt lat="43.607310" lon="1.427938">
        <ele>139.1</ele>
        <time>2015-07-26T14:11:02Z</time>
      </trkpt>
      <trkpt lat="43.607250" lon="1.428007">
        <ele>138.3</ele>
        <time>2015-07-26T14:11:29Z</time>
      </trkpt>
      <trkpt lat="43.607242" lon="1.428071">
        <ele>138.2</ele>
        <time>2015-07-26T14:11:48Z</time>
      </trkpt>
      <trkpt lat="43.607335" lon="1.428087">
        <ele>138.2</ele>
        <time>2015-07-26T14:12:19Z</time>
      </trkpt>
      <trkpt lat="43.607348" lon="1.428215">
        <ele>137.7</ele>
        <time>2015-07-26T14:12:47Z</time>
      </trkpt>
      <trkpt lat="43.607324" lon="1.428366">
        <ele>137.4</ele>
        <time>2015-07-26T14:12:59Z</time>
      </trkpt>
      <trkpt lat="43.607241" lon="1.428524">
        <ele>137.3</ele>
        <time>2015-07-26T14:13:12Z</time>
      </trkpt>
      <trkpt lat="43.607203" lon="1.428480">
        <ele>134.9</ele>
        <time>2015-07-26T14:13:50Z</time>
      </trkpt>
      <trkpt lat="43.607147" lon="1.428396">
        <ele>134.5</ele>
        <time>2015-07-26T14:14:12Z</time>
      </trkpt>
      <trkpt lat="43.607066" lon="1.428451">
        <ele>135.6</ele>
        <time>2015-07-26T14:14:56Z</time>
      </trkpt>
      <trkpt lat="43.607039" lon="1.428590">
        <ele>134.8</ele>
        <time>2015-07-26T14:15:09Z</time>
      </trkpt>
      <trkpt lat="43.607003" lon="1.428721">
        <ele>135.0</ele>
        <time>2015-07-26T14:15:19Z</time>
      </trkpt>
      <trkpt lat="43.606956" lon="1.428875">
        <ele>135.2</ele>
        <time>2015-07-26T14:15:29Z</time>
      </trkpt>
      <trkpt lat="43.606946" lon="1.429013">
        <ele>135.1</ele>
        <time>2015-07-26T14:15:38Z</time>
      </trkpt>
      <trkpt lat="43.606925" lon="1.429158">
        <ele>135.1</ele>
        <time>2015-07-26T14:15:49Z</time>
      </trkpt>
      <trkpt lat="43.606882" lon="1.429305">
        <ele>135.9</ele>
        <time>2015-07-26T14:16:00Z</time>
      </trkpt>
      <trkpt lat="43.606802" lon="1.429480">
        <ele>136.4</ele>
        <time>2015-07-26T14:16:09Z</time>
      </trkpt>
      <trkpt lat="43.606720" lon="1.429639">
        <ele>136.2</ele>
        <time>2015-07-26T14:16:19Z</time>
      </trkpt>
      <trkpt lat="43.606626" lon="1.429770">
        <ele>134.2</ele>
        <time>2015-07-26T14:16:28Z</time>
      </trkpt>
      <trkpt lat="43.606562" lon="1.429889">
        <ele>132.9</ele>
        <time>2015-07-26T14:16:38Z</time>
      </trkpt>
      <trkpt lat="43.606528" lon="1.430041">
        <ele>132.4</ele>
        <time>2015-07-26T14:16:48Z</time>
      </trkpt>
      <trkpt lat="43.606534" lon="1.430193">
        <ele>131.9</ele>
        <time>2015-07-26T14:16:59Z</time>
      </trkpt>
      <trkpt lat="43.606441" lon="1.430374">
        <ele>128.8</ele>
        <time>2015-07-26T14:17:40Z</time>
      </trkpt>
      <trkpt lat="43.606429" lon="1.430479">
        <ele>128.4</ele>
        <time>2015-07-26T14:18:03Z</time>
      </trkpt>
      <trkpt lat="43.606337" lon="1.430517">
        <ele>130.7</ele>
        <time>2015-07-26T14:18:27Z</time>
      </trkpt>
      <trkpt lat="43.606278" lon="1.430556">
        <ele>130.6</ele>
        <time>2015-07-26T14:18:38Z</time>
      </trkpt>
      <trkpt lat="43.606235" lon="1.430647">
        <ele>130.2</ele>
        <time>2015-07-26T14:18:49Z</time>
      </trkpt>
      <trkpt lat="43.606294" lon="1.430691">
        <ele>128.4</ele>
        <time>2015-07-26T14:19:11Z</time>
      </trkpt>
      <trkpt lat="43.606291" lon="1.430814">
        <ele>126.9</ele>
        <time>2015-07-26T14:19:29Z</time>
      </trkpt>
      <trkpt lat="43.606237" lon="1.430950">
        <ele>127.4</ele>
        <time>2015-07-26T14:19:39Z</time>
      </trkpt>
      <trkpt lat="43.606180" lon="1.431079">
        <ele>129.4</ele>
        <time>2015-07-26T14:19:49Z</time>
      </trkpt>
      <trkpt lat="43.606139" lon="1.431193">
        <ele>130.4</ele>
        <time>2015-07-26T14:19:59Z</time>
      </trkpt>
      <trkpt lat="43.606113" lon="1.431309">
        <ele>134.4</ele>
        <time>2015-07-26T14:20:11Z</time>
      </trkpt>
      <trkpt lat="43.606047" lon="1.431448">
        <ele>136.8</ele>
        <time>2015-07-26T14:20:22Z</time>
      </trkpt>
      <trkpt lat="43.605996" lon="1.431561">
        <ele>138.8</ele>
        <time>2015-07-26T14:20:32Z</time>
      </trkpt>
      <trkpt lat="43.605969" lon="1.431732">
        <ele>140.5</ele>
        <time>2015-07-26T14:20:43Z</time>
      </trkpt>
      <trkpt lat="43.605919" lon="1.431955">
        <ele>142.6</ele>
        <time>2015-07-26T14:21:51Z</time>
      </trkpt>
      <trkpt lat="43.605914" lon="1.431968">
        <ele>146.9</ele>
        <time>2015-07-26T14:22:18Z</time>
      </trkpt>
      <trkpt lat="43.605855" lon="1.432168">
        <ele>146.2</ele>
        <time>2015-07-26T14:22:30Z</time>
      </trkpt>
      <trkpt lat="43.605792" lon="1.432313">
        <ele>146.1</ele>
        <time>2015-07-26T14:22:40Z</time>
      </trkpt>
      <trkpt lat="43.605684" lon="1.432454">
        <ele>145.2</ele>
        <time>2015-07-26T14:22:49Z</time>
      </trkpt>
      <trkpt lat="43.605617" lon="1.432594">
        <ele>143.9</ele>
        <time>2015-07-26T14:22:59Z</time>
      </trkpt>
      <trkpt lat="43.605577" lon="1.432759">
        <ele>142.6</ele>
        <time>2015-07-26T14:23:09Z</time>
      </trkpt>
      <trkpt lat="43.605533" lon="1.432911">
        <ele>142.2</ele>
        <time>2015-07-26T14:23:19Z</time>
      </trkpt>
      <trkpt lat="43.605497" lon="1.433055">
        <ele>141.8</ele>
        <time>2015-07-26T14:23:29Z</time>
      </trkpt>
      <trkpt lat="43.605446" lon="1.433199">
        <ele>140.9</ele>
        <time>2015-07-26T14:23:39Z</time>
      </trkpt>
      <trkpt lat="43.605408" lon="1.433360">
        <ele>139.8</ele>
        <time>2015-07-26T14:23:49Z</time>
      </trkpt>
      <trkpt lat="43.605359" lon="1.433505">
        <ele>139.2</ele>
        <time>2015-07-26T14:23:59Z</time>
      </trkpt>
      <trkpt lat="43.605325" lon="1.433639">
        <ele>138.5</ele>
        <time>2015-07-26T14:24:10Z</time>
      </trkpt>
      <trkpt lat="43.605248" lon="1.433742">
        <ele>139.1</ele>
        <time>2015-07-26T14:24:20Z</time>
      </trkpt>
      <trkpt lat="43.605176" lon="1.433867">
        <ele>139.4</ele>
        <time>2015-07-26T14:24:31Z</time>
      </trkpt>
      <trkpt lat="43.605079" lon="1.433986">
        <ele>138.1</ele>
        <time>2015-07-26T14:24:41Z</time>
      </trkpt>
      <trkpt lat="43.604952" lon="1.434110">
        <ele>136.9</ele>
        <time>2015-07-26T14:24:53Z</time>
      </trkpt>
      <trkpt lat="43.604881" lon="1.434198">
        <ele>136.7</ele>
        <time>2015-07-26T14:25:19Z</time>
      </trkpt>
      <trkpt lat="43.604802" lon="1.434312">
        <ele>136.8</ele>
        <time>2015-07-26T14:25:40Z</time>
      </trkpt>
      <trkpt lat="43.604705" lon="1.434400">
        <ele>138.1</ele>
        <time>2015-07-26T14:25:56Z</time>
      </trkpt>
      <trkpt lat="43.604620" lon="1.434445">
        <ele>138.0</ele>
        <time>2015-07-26T14:26:05Z</time>
      </trkpt>
      <trkpt lat="43.604539" lon="1.434440">
        <ele>137.2</ele>
        <time>2015-07-26T14:26:14Z</time>
      </trkpt>
      <trkpt lat="43.604440" lon="1.434430">
        <ele>136.5</ele>
        <time>2015-07-26T14:26:23Z</time>
      </trkpt>
      <trkpt lat="43.604343" lon="1.434369">
        <ele>135.1</ele>
        <time>2015-07-26T14:26:35Z</time>
      </trkpt>
      <trkpt lat="43.604263" lon="1.434308">
        <ele>131.7</ele>
        <time>2015-07-26T14:27:13Z</time>
      </trkpt>
      <trkpt lat="43.604173" lon="1.434290">
        <ele>131.6</ele>
        <time>2015-07-26T14:27:29Z</time>
      </trkpt>
      <trkpt lat="43.604090" lon="1.434254">
        <ele>133.3</ele>
        <time>2015-07-26T14:27:40Z</time>
      </trkpt>
      <trkpt lat="43.604009" lon="1.434259">
        <ele>137.9</ele>
        <time>2015-07-26T14:28:01Z</time>
      </trkpt>
      <trkpt lat="43.603981" lon="1.434213">
        <ele>140.9</ele>
        <time>2015-07-26T14:32:01Z</time>
      </trkpt>
      <trkpt lat="43.603906" lon="1.434261">
        <ele>139.1</ele>
        <time>2015-07-26T14:32:23Z</time>
      </trkpt>
      <trkpt lat="43.603858" lon="1.434210">
        <ele>138.0</ele>
        <time>2015-07-26T14:34:14Z</time>
      </trkpt>
      <trkpt lat="43.603796" lon="1.434155">
        <ele>135.3</ele>
        <time>2015-07-26T14:34:30Z</time>
      </trkpt>
      <trkpt lat="43.603812" lon="1.433971">
        <ele>134.2</ele>
        <time>2015-07-26T14:34:47Z</time>
      </trkpt>
      <trkpt lat="43.603858" lon="1.433854">
        <ele>133.1</ele>
        <time>2015-07-26T14:35:06Z</time>
      </trkpt>
      <trkpt lat="43.603923" lon="1.433767">
        <ele>131.9</ele>
        <time>2015-07-26T14:35:21Z</time>
      </trkpt>
      <trkpt lat="43.603987" lon="1.433668">
        <ele>131.2</ele>
        <time>2015-07-26T14:35:38Z</time>
      </trkpt>
      <trkpt lat="43.604064" lon="1.433560">
        <ele>131.2</ele>
        <time>2015-07-26T14:35:51Z</time>
      </trkpt>
      <trkpt lat="43.604109" lon="1.433421">
        <ele>131.0</ele>
        <time>2015-07-26T14:36:08Z</time>
      </trkpt>
      <trkpt lat="43.604166" lon="1.433312">
        <ele>130.2</ele>
        <time>2015-07-26T14:36:28Z</time>
      </trkpt>
      <trkpt lat="43.604235" lon="1.433214">
        <ele>130.4</ele>
        <time>2015-07-26T14:36:37Z</time>
      </trkpt>
      <trkpt lat="43.604254" lon="1.433094">
        <ele>130.1</ele>
        <time>2015-07-26T14:37:03Z</time>
      </trkpt>
      <trkpt lat="43.604284" lon="1.433099">
        <ele>129.9</ele>
        <time>2015-07-26T14:37:59Z</time>
      </trkpt>
      <trkpt lat="43.604345" lon="1.432991">
        <ele>129.5</ele>
        <time>2015-07-26T14:38:11Z</time>
      </trkpt>
      <trkpt lat="43.604342" lon="1.432889">
        <ele>128.9</ele>
        <time>2015-07-26T14:38:42Z</time>
      </trkpt>
      <trkpt lat="43.604367" lon="1.432815">
        <ele>127.7</ele>
        <time>2015-07-26T14:39:11Z</time>
      </trkpt>
      <trkpt lat="43.604442" lon="1.432706">
        <ele>127.7</ele>
        <time>2015-07-26T14:39:23Z</time>
      </trkpt>
      <trkpt lat="43.604486" lon="1.432591">
        <ele>128.6</ele>
        <time>2015-07-26T14:39:36Z</time>
      </trkpt>
      <trkpt lat="43.604535" lon="1.432615">
        <ele>129.1</ele>
        <time>2015-07-26T14:40:14Z</time>
      </trkpt>
      <trkpt lat="43.604564" lon="1.432552">
        <ele>131.6</ele>
        <time>2015-07-26T14:40:43Z</time>
      </trkpt>
      <trkpt lat="43.604634" lon="1.432509">
        <ele>133.1</ele>
        <time>2015-07-26T14:41:37Z</time>
      </trkpt>
      <trkpt lat="43.604712" lon="1.432441">
        <ele>133.3</ele>
        <time>2015-07-26T14:41:56Z</time>
      </trkpt>
      <trkpt lat="43.604744" lon="1.432273">
        <ele>133.6</ele>
        <time>2015-07-26T14:42:08Z</time>
      </trkpt>
      <trkpt lat="43.604764" lon="1.432144">
        <ele>133.5</ele>
        <time>2015-07-26T14:42:27Z</time>
      </trkpt>
      <trkpt lat="43.604756" lon="1.431975">
        <ele>132.7</ele>
        <time>2015-07-26T14:42:39Z</time>
      </trkpt>
      <trkpt lat="43.604704" lon="1.431837">
        <ele>131.5</ele>
        <time>2015-07-26T14:42:50Z</time>
      </trkpt>
      <trkpt lat="43.604684" lon="1.431715">
        <ele>130.4</ele>
        <time>2015-07-26T14:43:00Z</time>
      </trkpt>
      <trkpt lat="43.604673" lon="1.431582">
        <ele>129.4</ele>
        <time>2015-07-26T14:43:10Z</time>
      </trkpt>
      <trkpt lat="43.604632" lon="1.431444">
        <ele>128.4</ele>
        <time>2015-07-26T14:43:21Z</time>
      </trkpt>
      <trkpt lat="43.604600" lon="1.431323">
        <ele>128.1</ele>
        <time>2015-07-26T14:43:31Z</time>
      </trkpt>
      <trkpt lat="43.604527" lon="1.431242">
        <ele>129.0</ele>
        <time>2015-07-26T14:43:42Z</time>
      </trkpt>
      <trkpt lat="43.604443" lon="1.431190">
        <ele>130.2</ele>
        <time>2015-07-26T14:43:53Z</time>
      </trkpt>
      <trkpt lat="43.604351" lon="1.431147">
        <ele>130.8</ele>
        <time>2015-07-26T14:44:03Z</time>
      </trkpt>
      <trkpt lat="43.604302" lon="1.431049">
        <ele>132.4</ele>
        <time>2015-07-26T14:44:12Z</time>
      </trkpt>
      <trkpt lat="43.604222" lon="1.430990">
        <ele>134.4</ele>
        <time>2015-07-26T14:44:23Z</time>
      </trkpt>
      <trkpt lat="43.604139" lon="1.430929">
        <ele>135.9</ele>
        <time>2015-07-26T14:44:32Z</time>
      </trkpt>
      <trkpt lat="43.604076" lon="1.430862">
        <ele>137.4</ele>
        <time>2015-07-26T14:45:41Z</time>
      </trkpt>
      <trkpt lat="43.604001" lon="1.430795">
        <ele>137.5</ele>
        <time>2015-07-26T14:45:52Z</time>
      </trkpt>
      <trkpt lat="43.603954" lon="1.430671">
        <ele>139.3</ele>
        <time>2015-07-26T14:48:58Z</time>
      </trkpt>
      <trkpt lat="43.603908" lon="1.430602">
        <ele>140.4</ele>
        <time>2015-07-26T14:50:19Z</time>
      </trkpt>
      <trkpt lat="43.603891" lon="1.430462">
        <ele>139.8</ele>
        <time>2015-07-26T14:50:43Z</time>
      </trkpt>
      <trkpt lat="43.603868" lon="1.430333">
        <ele>137.9</ele>
        <time>2015-07-26T14:50:53Z</time>
      </trkpt>
      <trkpt lat="43.603858" lon="1.430212">
        <ele>136.2</ele>
        <time>2015-07-26T14:51:03Z</time>
      </trkpt>
      <trkpt lat="43.603948" lon="1.430189">
        <ele>132.8</ele>
        <time>2015-07-26T14:52:52Z</time>
      </trkpt>
      <trkpt lat="43.603976" lon="1.430132">
        <ele>135.2</ele>
        <time>2015-07-26T14:53:25Z</time>
      </trkpt>
      <trkpt lat="43.603970" lon="1.430011">
        <ele>134.5</ele>
        <time>2015-07-26T14:53:34Z</time>
      </trkpt>
      <trkpt lat="43.603970" lon="1.429891">
        <ele>133.2</ele>
        <time>2015-07-26T14:53:44Z</time>
      </trkpt>
      <trkpt lat="43.603983" lon="1.429767">
        <ele>133.1</ele>
        <time>2015-07-26T14:53:53Z</time>
      </trkpt>
      <trkpt lat="43.604017" lon="1.429701">
        <ele>132.9</ele>
        <time>2015-07-26T14:54:16Z</time>
      </trkpt>
      <trkpt lat="43.603995" lon="1.429611">
        <ele>132.2</ele>
        <time>2015-07-26T14:54:46Z</time>
      </trkpt>
      <trkpt lat="43.604026" lon="1.429499">
        <ele>131.2</ele>
        <time>2015-07-26T14:54:56Z</time>
      </trkpt>
      <trkpt lat="43.604059" lon="1.429373">
        <ele>130.5</ele>
        <time>2015-07-26T14:55:05Z</time>
      </trkpt>
      <trkpt lat="43.604110" lon="1.429304">
        <ele>129.4</ele>
        <time>2015-07-26T14:55:23Z</time>
      </trkpt>
      <trkpt lat="43.604146" lon="1.429172">
        <ele>129.2</ele>
        <time>2015-07-26T14:55:33Z</time>
      </trkpt>
      <trkpt lat="43.604177" lon="1.429050">
        <ele>128.1</ele>
        <time>2015-07-26T14:55:42Z</time>
      </trkpt>
      <trkpt lat="43.604212" lon="1.428918">
        <ele>126.0</ele>
        <time>2015-07-26T14:55:51Z</time>
      </trkpt>
      <trkpt lat="43.604215" lon="1.428842">
        <ele>122.1</ele>
        <time>2015-07-26T14:56:17Z</time>
      </trkpt>
      <trkpt lat="43.604261" lon="1.428730">
        <ele>122.7</ele>
        <time>2015-07-26T14:56:26Z</time>
      </trkpt>
      <trkpt lat="43.604295" lon="1.428607">
        <ele>123.0</ele>
        <time>2015-07-26T14:56:36Z</time>
      </trkpt>
      <trkpt lat="43.604322" lon="1.428467">
        <ele>122.9</ele>
        <time>2015-07-26T14:56:46Z</time>
      </trkpt>
      <trkpt lat="43.604424" lon="1.428375">
        <ele>122.4</ele>
        <time>2015-07-26T14:56:55Z</time>
      </trkpt>
      <trkpt lat="43.604505" lon="1.428315">
        <ele>122.3</ele>
        <time>2015-07-26T14:57:06Z</time>
      </trkpt>
      <trkpt lat="43.604595" lon="1.428286">
        <ele>122.0</ele>
        <time>2015-07-26T14:57:15Z</time>
      </trkpt>
      <trkpt lat="43.604653" lon="1.428239">
        <ele>121.3</ele>
        <time>2015-07-26T14:57:35Z</time>
      </trkpt>
      <trkpt lat="43.604506" lon="1.427878">
        <ele>121.2</ele>
        <time>2015-07-26T14:57:52Z</time>
      </trkpt>
      <trkpt lat="43.604408" lon="1.427816">
        <ele>122.6</ele>
        <time>2015-07-26T14:58:06Z</time>
      </trkpt>
      <trkpt lat="43.604382" lon="1.427669">
        <ele>132.2</ele>
        <time>2015-07-26T15:00:38Z</time>
      </trkpt>
      <trkpt lat="43.604391" lon="1.427530">
        <ele>132.7</ele>
        <time>2015-07-26T15:00:49Z</time>
      </trkpt>
      <trkpt lat="43.604422" lon="1.427385">
        <ele>132.9</ele>
        <time>2015-07-26T15:01:01Z</time>
      </trkpt>
      <trkpt lat="43.604441" lon="1.427250">
        <ele>133.0</ele>
        <time>2015-07-26T15:01:12Z</time>
      </trkpt>
      <trkpt lat="43.604423" lon="1.427106">
        <ele>132.5</ele>
        <time>2015-07-26T15:01:22Z</time>
      </trkpt>
      <trkpt lat="43.604430" lon="1.426964">
        <ele>131.7</ele>
        <time>2015-07-26T15:01:31Z</time>
      </trkpt>
      <trkpt lat="43.604417" lon="1.426831">
        <ele>131.9</ele>
        <time>2015-07-26T15:01:40Z</time>
      </trkpt>
      <trkpt lat="43.604430" lon="1.426706">
        <ele>132.1</ele>
        <time>2015-07-26T15:01:48Z</time>
      </trkpt>
      <trkpt lat="43.604433" lon="1.426566">
        <ele>132.2</ele>
        <time>2015-07-26T15:01:57Z</time>
      </trkpt>
      <trkpt lat="43.604454" lon="1.426437">
        <ele>130.6</ele>
        <time>2015-07-26T15:02:05Z</time>
      </trkpt>
      <trkpt lat="43.604464" lon="1.426304">
        <ele>128.9</ele>
        <time>2015-07-26T15:02:13Z</time>
      </trkpt>
      <trkpt lat="43.604485" lon="1.426178">
        <ele>128.0</ele>
        <time>2015-07-26T15:02:21Z</time>
      </trkpt>
      <trkpt lat="43.604508" lon="1.426057">
        <ele>128.0</ele>
        <time>2015-07-26T15:02:28Z</time>
      </trkpt>
      <trkpt lat="43.604516" lon="1.425931">
        <ele>127.5</ele>
        <time>2015-07-26T15:02:36Z</time>
      </trkpt>
      <trkpt lat="43.604543" lon="1.425813">
        <ele>127.2</ele>
        <time>2015-07-26T15:02:44Z</time>
      </trkpt>
      <trkpt lat="43.604563" lon="1.425692">
        <ele>127.4</ele>
        <time>2015-07-26T15:02:53Z</time>
      </trkpt>
      <trkpt lat="43.604586" lon="1.425560">
        <ele>129.2</ele>
        <time>2015-07-26T15:03:30Z</time>
      </trkpt>
      <trkpt lat="43.604612" lon="1.425439">
        <ele>129.1</ele>
        <time>2015-07-26T15:03:40Z</time>
      </trkpt>
      <trkpt lat="43.604634" lon="1.425314">
        <ele>129.5</ele>
        <time>2015-07-26T15:03:50Z</time>
      </trkpt>
      <trkpt lat="43.604675" lon="1.425189">
        <ele>128.4</ele>
        <time>2015-07-26T15:04:19Z</time>
      </trkpt>
      <trkpt lat="43.604695" lon="1.425073">
        <ele>129.9</ele>
        <time>2015-07-26T15:04:27Z</time>
      </trkpt>
      <trkpt lat="43.604728" lon="1.424947">
        <ele>130.1</ele>
        <time>2015-07-26T15:04:36Z</time>
      </trkpt>
      <trkpt lat="43.604754" lon="1.424825">
        <ele>130.3</ele>
        <time>2015-07-26T15:04:44Z</time>
      </trkpt>
      <trkpt lat="43.604779" lon="1.424710">
        <ele>130.7</ele>
        <time>2015-07-26T15:04:52Z</time>
      </trkpt>
      <trkpt lat="43.604805" lon="1.424590">
        <ele>131.1</ele>
        <time>2015-07-26T15:05:00Z</time>
      </trkpt>
      <trkpt lat="43.604842" lon="1.424472">
        <ele>131.8</ele>
        <time>2015-07-26T15:05:09Z</time>
      </trkpt>
      <trkpt lat="43.604868" lon="1.424351">
        <ele>132.2</ele>
        <time>2015-07-26T15:05:17Z</time>
      </trkpt>
      <trkpt lat="43.604898" lon="1.424256">
        <ele>132.2</ele>
        <time>2015-07-26T15:05:56Z</time>
      </trkpt>
      <trkpt lat="43.604930" lon="1.424132">
        <ele>132.6</ele>
        <time>2015-07-26T15:06:05Z</time>
      </trkpt>
      <trkpt lat="43.604969" lon="1.424048">
        <ele>134.6</ele>
        <time>2015-07-26T15:07:07Z</time>
      </trkpt>
      <trkpt lat="43.604987" lon="1.423919">
        <ele>135.6</ele>
        <time>2015-07-26T15:07:17Z</time>
      </trkpt>
      <trkpt lat="43.605009" lon="1.423870">
        <ele>140.5</ele>
        <time>2015-07-26T15:08:26Z</time>
      </trkpt>
      <trkpt lat="43.605063" lon="1.423750">
        <ele>141.7</ele>
        <time>2015-07-26T15:09:07Z</time>
      </trkpt>
      <trkpt lat="43.605090" lon="1.423609">
        <ele>140.4</ele>
        <time>2015-07-26T15:09:44Z</time>
      </trkpt>
      <trkpt lat="43.605106" lon="1.423475">
        <ele>140.8</ele>
        <time>2015-07-26T15:09:54Z</time>
      </trkpt>
      <trkpt lat="43.605130" lon="1.423348">
        <ele>140.9</ele>
        <time>2015-07-26T15:10:01Z</time>
      </trkpt>
      <trkpt lat="43.605153" lon="1.423233">
        <ele>140.8</ele>
        <time>2015-07-26T15:10:08Z</time>
      </trkpt>
      <trkpt lat="43.605189" lon="1.423115">
        <ele>139.9</ele>
        <time>2015-07-26T15:10:16Z</time>
      </trkpt>
      <trkpt lat="43.605205" lon="1.422982">
        <ele>139.0</ele>
        <time>2015-07-26T15:10:23Z</time>
      </trkpt>
      <trkpt lat="43.605219" lon="1.422849">
        <ele>138.1</ele>
        <time>2015-07-26T15:10:30Z</time>
      </trkpt>
      <trkpt lat="43.605240" lon="1.422708">
        <ele>137.3</ele>
        <time>2015-07-26T15:10:38Z</time>
      </trkpt>
      <trkpt lat="43.605285" lon="1.422578">
        <ele>137.0</ele>
        <time>2015-07-26T15:10:45Z</time>
      </trkpt>
      <trkpt lat="43.605337" lon="1.422474">
        <ele>137.7</ele>
        <time>2015-07-26T15:10:52Z</time>
      </trkpt>
      <trkpt lat="43.605361" lon="1.422354">
        <ele>138.2</ele>
        <time>2015-07-26T15:10:59Z</time>
      </trkpt>
      <trkpt lat="43.605402" lon="1.422224">
        <ele>138.6</ele>
        <time>2015-07-26T15:11:06Z</time>
      </trkpt>
      <trkpt lat="43.605427" lon="1.422104">
        <ele>138.9</ele>
        <time>2015-07-26T15:11:12Z</time>
      </trkpt>
      <trkpt lat="43.605445" lon="1.422006">
        <ele>139.1</ele>
        <time>2015-07-26T15:11:19Z</time>
      </trkpt>
      <trkpt lat="43.605488" lon="1.421884">
        <ele>138.9</ele>
        <time>2015-07-26T15:11:26Z</time>
      </trkpt>
      <trkpt lat="43.605521" lon="1.421760">
        <ele>138.3</ele>
        <time>2015-07-26T15:11:33Z</time>
      </trkpt>
      <trkpt lat="43.605534" lon="1.421639">
        <ele>137.8</ele>
        <time>2015-07-26T15:11:42Z</time>
      </trkpt>
      <trkpt lat="43.605566" lon="1.421501">
        <ele>138.8</ele>
        <time>2015-07-26T15:11:51Z</time>
      </trkpt>
      <trkpt lat="43.605588" lon="1.421360">
        <ele>137.7</ele>
        <time>2015-07-26T15:11:59Z</time>
      </trkpt>
      <trkpt lat="43.605634" lon="1.421244">
        <ele>137.9</ele>
        <time>2015-07-26T15:12:09Z</time>
      </trkpt>
      <trkpt lat="43.605646" lon="1.421108">
        <ele>138.0</ele>
        <time>2015-07-26T15:12:17Z</time>
      </trkpt>
      <trkpt lat="43.605670" lon="1.420967">
        <ele>138.3</ele>
        <time>2015-07-26T15:12:25Z</time>
      </trkpt>
      <trkpt lat="43.605694" lon="1.420824">
        <ele>138.1</ele>
        <time>2015-07-26T15:12:33Z</time>
      </trkpt>
      <trkpt lat="43.605720" lon="1.420690">
        <ele>137.6</ele>
        <time>2015-07-26T15:12:41Z</time>
      </trkpt>
      <trkpt lat="43.605763" lon="1.420546">
        <ele>135.6</ele>
        <time>2015-07-26T15:12:50Z</time>
      </trkpt>
      <trkpt lat="43.605848" lon="1.420505">
        <ele>132.4</ele>
        <time>2015-07-26T15:23:40Z</time>
      </trkpt>
      <trkpt lat="43.605923" lon="1.420560">
        <ele>128.2</ele>
        <time>2015-07-26T15:23:55Z</time>
      </trkpt>
      <trkpt lat="43.606011" lon="1.420581">
        <ele>125.4</ele>
        <time>2015-07-26T15:24:04Z</time>
      </trkpt>
      <trkpt lat="43.606098" lon="1.420625">
        <ele>124.4</ele>
        <time>2015-07-26T15:24:12Z</time>
      </trkpt>
      <trkpt lat="43.606189" lon="1.420596">
        <ele>126.4</ele>
        <time>2015-07-26T15:24:22Z</time>
      </trkpt>
      <trkpt lat="43.606220" lon="1.420469">
        <ele>126.9</ele>
        <time>2015-07-26T15:24:30Z</time>
      </trkpt>
      <trkpt lat="43.606272" lon="1.420361">
        <ele>126.0</ele>
        <time>2015-07-26T15:24:50Z</time>
      </trkpt>
      <trkpt lat="43.606308" lon="1.420226">
        <ele>125.8</ele>
        <time>2015-07-26T15:25:01Z</time>
      </trkpt>
      <trkpt lat="43.606331" lon="1.420098">
        <ele>125.3</ele>
        <time>2015-07-26T15:25:10Z</time>
      </trkpt>
      <trkpt lat="43.606347" lon="1.419969">
        <ele>124.5</ele>
        <time>2015-07-26T15:25:19Z</time>
      </trkpt>
      <trkpt lat="43.606366" lon="1.419828">
        <ele>123.2</ele>
        <time>2015-07-26T15:25:29Z</time>
      </trkpt>
      <trkpt lat="43.606426" lon="1.419703">
        <ele>122.4</ele>
        <time>2015-07-26T15:25:37Z</time>
      </trkpt>
      <trkpt lat="43.606462" lon="1.419567">
        <ele>122.1</ele>
        <time>2015-07-26T15:25:47Z</time>
      </trkpt>
      <trkpt lat="43.606496" lon="1.419432">
        <ele>122.4</ele>
        <time>2015-07-26T15:25:56Z</time>
      </trkpt>
      <trkpt lat="43.606515" lon="1.419294">
        <ele>122.5</ele>
        <time>2015-07-26T15:26:08Z</time>
      </trkpt>
      <trkpt lat="43.606580" lon="1.419180">
        <ele>122.7</ele>
        <time>2015-07-26T15:26:17Z</time>
      </trkpt>
      <trkpt lat="43.606643" lon="1.419067">
        <ele>122.7</ele>
        <time>2015-07-26T15:26:26Z</time>
      </trkpt>
      <trkpt lat="43.606679" lon="1.418908">
        <ele>123.0</ele>
        <time>2015-07-26T15:26:36Z</time>
      </trkpt>
      <trkpt lat="43.606661" lon="1.418756">
        <ele>122.5</ele>
        <time>2015-07-26T15:26:45Z</time>
      </trkpt>
      <trkpt lat="43.606645" lon="1.418617">
        <ele>121.3</ele>
        <time>2015-07-26T15:26:54Z</time>
      </trkpt>
      <trkpt lat="43.606647" lon="1.418450">
        <ele>121.8</ele>
        <time>2015-07-26T15:27:05Z</time>
      </trkpt>
      <trkpt lat="43.606699" lon="1.418327">
        <ele>121.8</ele>
        <time>2015-07-26T15:27:13Z</time>
      </trkpt>
      <trkpt lat="43.606733" lon="1.418176">
        <ele>121.0</ele>
        <time>2015-07-26T15:27:23Z</time>
      </trkpt>
      <trkpt lat="43.606783" lon="1.418053">
        <ele>120.6</ele>
        <time>2015-07-26T15:27:31Z</time>
      </trkpt>
      <trkpt lat="43.606835" lon="1.417921">
        <ele>119.8</ele>
        <time>2015-07-26T15:27:41Z</time>
      </trkpt>
      <trkpt lat="43.606894" lon="1.417808">
        <ele>118.2</ele>
        <time>2015-07-26T15:27:52Z</time>
      </trkpt>
      <trkpt lat="43.606957" lon="1.417712">
        <ele>116.8</ele>
        <time>2015-07-26T15:28:03Z</time>
      </trkpt>
      <trkpt lat="43.607060" lon="1.417575">
        <ele>115.7</ele>
        <time>2015-07-26T15:28:15Z</time>
      </trkpt>
      <trkpt lat="43.607162" lon="1.417480">
        <ele>116.7</ele>
        <time>2015-07-26T15:28:23Z</time>
      </trkpt>
      <trkpt lat="43.607232" lon="1.417353">
        <ele>117.3</ele>
        <time>2015-07-26T15:28:31Z</time>
      </trkpt>
      <trkpt lat="43.607289" lon="1.417176">
        <ele>117.4</ele>
        <time>2015-07-26T15:28:42Z</time>
      </trkpt>
      <trkpt lat="43.607347" lon="1.417061">
        <ele>118.3</ele>
        <time>2015-07-26T15:28:50Z</time>
      </trkpt>
      <trkpt lat="43.607409" lon="1.416923">
        <ele>119.2</ele>
        <time>2015-07-26T15:29:01Z</time>
      </trkpt>
      <trkpt lat="43.607470" lon="1.416829">
        <ele>119.5</ele>
        <time>2015-07-26T15:29:08Z</time>
      </trkpt>
      <trkpt lat="43.607527" lon="1.416710">
        <ele>120.3</ele>
        <time>2015-07-26T15:29:18Z</time>
      </trkpt>
      <trkpt lat="43.607581" lon="1.416567">
        <ele>121.1</ele>
        <time>2015-07-26T15:29:27Z</time>
      </trkpt>
      <trkpt lat="43.607626" lon="1.416421">
        <ele>122.2</ele>
        <time>2015-07-26T15:29:35Z</time>
      </trkpt>
      <trkpt lat="43.607656" lon="1.416316">
        <ele>121.8</ele>
        <time>2015-07-26T15:29:43Z</time>
      </trkpt>
      <trkpt lat="43.607719" lon="1.416214">
        <ele>122.0</ele>
        <time>2015-07-26T15:29:51Z</time>
      </trkpt>
      <trkpt lat="43.607761" lon="1.416102">
        <ele>122.6</ele>
        <time>2015-07-26T15:30:00Z</time>
      </trkpt>
      <trkpt lat="43.607829" lon="1.416029">
        <ele>123.2</ele>
        <time>2015-07-26T15:30:19Z</time>
      </trkpt>
      <trkpt lat="43.607895" lon="1.415934">
        <ele>122.0</ele>
        <time>2015-07-26T15:30:28Z</time>
      </trkpt>
      <trkpt lat="43.607973" lon="1.415839">
        <ele>120.0</ele>
        <time>2015-07-26T15:30:41Z</time>
      </trkpt>
      <trkpt lat="43.608065" lon="1.415722">
        <ele>118.6</ele>
        <time>2015-07-26T15:30:52Z</time>
      </trkpt>
      <trkpt lat="43.608111" lon="1.415587">
        <ele>117.6</ele>
        <time>2015-07-26T15:31:02Z</time>
      </trkpt>
      <trkpt lat="43.608152" lon="1.415460">
        <ele>117.8</ele>
        <time>2015-07-26T15:31:12Z</time>
      </trkpt>
      <trkpt lat="43.608202" lon="1.415342">
        <ele>119.1</ele>
        <time>2015-07-26T15:31:22Z</time>
      </trkpt>
      <trkpt lat="43.608282" lon="1.415238">
        <ele>122.8</ele>
        <time>2015-07-26T15:31:35Z</time>
      </trkpt>
      <trkpt lat="43.608352" lon="1.415153">
        <ele>124.5</ele>
        <time>2015-07-26T15:31:49Z</time>
      </trkpt>
      <trkpt lat="43.608461" lon="1.415189">
        <ele>124.0</ele>
        <time>2015-07-26T15:32:01Z</time>
      </trkpt>
      <trkpt lat="43.608560" lon="1.415245">
        <ele>123.2</ele>
        <time>2015-07-26T15:32:12Z</time>
      </trkpt>
      <trkpt lat="43.608639" lon="1.415324">
        <ele>122.0</ele>
        <time>2015-07-26T15:32:22Z</time>
      </trkpt>
      <trkpt lat="43.608715" lon="1.415412">
        <ele>120.0</ele>
        <time>2015-07-26T15:32:31Z</time>
      </trkpt>
      <trkpt lat="43.608789" lon="1.415513">
        <ele>121.0</ele>
        <time>2015-07-26T15:32:41Z</time>
      </trkpt>
      <trkpt lat="43.608845" lon="1.415651">
        <ele>122.7</ele>
        <time>2015-07-26T15:32:52Z</time>
      </trkpt>
      <trkpt lat="43.608874" lon="1.415788">
        <ele>124.0</ele>
        <time>2015-07-26T15:33:02Z</time>
      </trkpt>
      <trkpt lat="43.608877" lon="1.415894">
        <ele>124.8</ele>
        <time>2015-07-26T15:33:21Z</time>
      </trkpt>
      <trkpt lat="43.608795" lon="1.415966">
        <ele>124.5</ele>
        <time>2015-07-26T15:33:32Z</time>
      </trkpt>
      <trkpt lat="43.608718" lon="1.416066">
        <ele>124.2</ele>
        <time>2015-07-26T15:33:47Z</time>
      </trkpt>
      <trkpt lat="43.608674" lon="1.416103">
        <ele>123.9</ele>
        <time>2015-07-26T15:34:19Z</time>
      </trkpt>
      <trkpt lat="43.608717" lon="1.416156">
        <ele>128.5</ele>
        <time>2015-07-26T15:35:24Z</time>
      </trkpt>
      <trkpt lat="43.608796" lon="1.416262">
        <ele>130.3</ele>
        <time>2015-07-26T15:35:46Z</time>
      </trkpt>
      <trkpt lat="43.608845" lon="1.416373">
        <ele>131.3</ele>
        <time>2015-07-26T15:35:58Z</time>
      </trkpt>
      <trkpt lat="43.608883" lon="1.416457">
        <ele>135.1</ele>
        <time>2015-07-26T15:36:42Z</time>
      </trkpt>
      <trkpt lat="43.608943" lon="1.416590">
        <ele>135.0</ele>
        <time>2015-07-26T15:36:58Z</time>
      </trkpt>
      <trkpt lat="43.608983" lon="1.416707">
        <ele>132.4</ele>
        <time>2015-07-26T15:37:46Z</time>
      </trkpt>
      <trkpt lat="43.609032" lon="1.416856">
        <ele>132.4</ele>
        <time>2015-07-26T15:38:05Z</time>
      </trkpt>
      <trkpt lat="43.609093" lon="1.417022">
        <ele>132.1</ele>
        <time>2015-07-26T15:38:17Z</time>
      </trkpt>
      <trkpt lat="43.609173" lon="1.417165">
        <ele>131.6</ele>
        <time>2015-07-26T15:38:28Z</time>
      </trkpt>
      <trkpt lat="43.609251" lon="1.417254">
        <ele>130.3</ele>
        <time>2015-07-26T15:38:40Z</time>
      </trkpt>
      <trkpt lat="43.609264" lon="1.417227">
        <ele>132.6</ele>
        <time>2015-07-26T15:40:03Z</time>
      </trkpt>
      <trkpt lat="43.609325" lon="1.417428">
        <ele>131.3</ele>
        <time>2015-07-26T15:40:14Z</time>
      </trkpt>
      <trkpt lat="43.609367" lon="1.417579">
        <ele>131.0</ele>
        <time>2015-07-26T15:40:25Z</time>
      </trkpt>
      <trkpt lat="43.609423" lon="1.417718">
        <ele>130.4</ele>
        <time>2015-07-26T15:40:35Z</time>
      </trkpt>
      <trkpt lat="43.609491" lon="1.417833">
        <ele>130.4</ele>
        <time>2015-07-26T15:40:44Z</time>
      </trkpt>
      <trkpt lat="43.609554" lon="1.417955">
        <ele>130.0</ele>
        <time>2015-07-26T15:40:53Z</time>
      </trkpt>
      <trkpt lat="43.609606" lon="1.418059">
        <ele>128.8</ele>
        <time>2015-07-26T15:41:00Z</time>
      </trkpt>
      <trkpt lat="43.609653" lon="1.418173">
        <ele>127.9</ele>
        <time>2015-07-26T15:41:08Z</time>
      </trkpt>
      <trkpt lat="43.609701" lon="1.418313">
        <ele>126.9</ele>
        <time>2015-07-26T15:41:19Z</time>
      </trkpt>
      <trkpt lat="43.609768" lon="1.418427">
        <ele>126.0</ele>
        <time>2015-07-26T15:41:28Z</time>
      </trkpt>
      <trkpt lat="43.609797" lon="1.418549">
        <ele>125.6</ele>
        <time>2015-07-26T15:41:37Z</time>
      </trkpt>
      <trkpt lat="43.609855" lon="1.418677">
        <ele>126.4</ele>
        <time>2015-07-26T15:41:47Z</time>
      </trkpt>
      <trkpt lat="43.609916" lon="1.418804">
        <ele>127.9</ele>
        <time>2015-07-26T15:41:58Z</time>
      </trkpt>
      <trkpt lat="43.609949" lon="1.418913">
        <ele>128.6</ele>
        <time>2015-07-26T15:42:08Z</time>
      </trkpt>
      <trkpt lat="43.610016" lon="1.418985">
        <ele>129.3</ele>
        <time>2015-07-26T15:42:19Z</time>
      </trkpt>
      <trkpt lat="43.610098" lon="1.419056">
        <ele>130.1</ele>
        <time>2015-07-26T15:42:30Z</time>
      </trkpt>
      <trkpt lat="43.610151" lon="1.419142">
        <ele>131.9</ele>
        <time>2015-07-26T15:42:44Z</time>
      </trkpt>
      <trkpt lat="43.610265" lon="1.419160">
        <ele>133.7</ele>
        <time>2015-07-26T15:42:57Z</time>
      </trkpt>
      <trkpt lat="43.610330" lon="1.419120">
        <ele>134.8</ele>
        <time>2015-07-26T15:43:06Z</time>
      </trkpt>
      <trkpt lat="43.610412" lon="1.419076">
        <ele>134.1</ele>
        <time>2015-07-26T15:43:16Z</time>
      </trkpt>
      <trkpt lat="43.610482" lon="1.418998">
        <ele>131.4</ele>
        <time>2015-07-26T15:43:26Z</time>
      </trkpt>
      <trkpt lat="43.610523" lon="1.418866">
        <ele>132.3</ele>
        <time>2015-07-26T15:43:47Z</time>
      </trkpt>
      <trkpt lat="43.610568" lon="1.418764">
        <ele>131.9</ele>
        <time>2015-07-26T15:44:03Z</time>
      </trkpt>
      <trkpt lat="43.610579" lon="1.418638">
        <ele>131.5</ele>
        <time>2015-07-26T15:44:17Z</time>
      </trkpt>
      <trkpt lat="43.610637" lon="1.418580">
        <ele>131.8</ele>
        <time>2015-07-26T15:44:36Z</time>
      </trkpt>
      <trkpt lat="43.610677" lon="1.418472">
        <ele>131.4</ele>
        <time>2015-07-26T15:45:00Z</time>
      </trkpt>
      <trkpt lat="43.610598" lon="1.418366">
        <ele>131.5</ele>
        <time>2015-07-26T15:45:12Z</time>
      </trkpt>
      <trkpt lat="43.610571" lon="1.418279">
        <ele>129.4</ele>
        <time>2015-07-26T15:45:23Z</time>
      </trkpt>
      <trkpt lat="43.610551" lon="1.418166">
        <ele>127.2</ele>
        <time>2015-07-26T15:45:31Z</time>
      </trkpt>
      <trkpt lat="43.610528" lon="1.418029">
        <ele>125.6</ele>
        <time>2015-07-26T15:45:40Z</time>
      </trkpt>
      <trkpt lat="43.610496" lon="1.417913">
        <ele>125.0</ele>
        <time>2015-07-26T15:45:48Z</time>
      </trkpt>
      <trkpt lat="43.610478" lon="1.417792">
        <ele>124.3</ele>
        <time>2015-07-26T15:45:56Z</time>
      </trkpt>
      <trkpt lat="43.610460" lon="1.417667">
        <ele>122.5</ele>
        <time>2015-07-26T15:46:04Z</time>
      </trkpt>
      <trkpt lat="43.610437" lon="1.417534">
        <ele>121.4</ele>
        <time>2015-07-26T15:46:13Z</time>
      </trkpt>
      <trkpt lat="43.610418" lon="1.417408">
        <ele>122.0</ele>
        <time>2015-07-26T15:46:22Z</time>
      </trkpt>
      <trkpt lat="43.610405" lon="1.417271">
        <ele>122.6</ele>
        <time>2015-07-26T15:46:31Z</time>
      </trkpt>
      <trkpt lat="43.610382" lon="1.417129">
        <ele>124.3</ele>
        <time>2015-07-26T15:46:40Z</time>
      </trkpt>
      <trkpt lat="43.610348" lon="1.417002">
        <ele>125.7</ele>
        <time>2015-07-26T15:46:50Z</time>
      </trkpt>
      <trkpt lat="43.610328" lon="1.416872">
        <ele>126.0</ele>
        <time>2015-07-26T15:46:58Z</time>
      </trkpt>
      <trkpt lat="43.610307" lon="1.416725">
        <ele>125.6</ele>
        <time>2015-07-26T15:47:07Z</time>
      </trkpt>
      <trkpt lat="43.610275" lon="1.416598">
        <ele>125.9</ele>
        <time>2015-07-26T15:47:16Z</time>
      </trkpt>
      <trkpt lat="43.610259" lon="1.416470">
        <ele>124.5</ele>
        <time>2015-07-26T15:47:25Z</time>
      </trkpt>
      <trkpt lat="43.610235" lon="1.416331">
        <ele>124.9</ele>
        <time>2015-07-26T15:47:34Z</time>
      </trkpt>
      <trkpt lat="43.610211" lon="1.416205">
        <ele>124.6</ele>
        <time>2015-07-26T15:47:42Z</time>
      </trkpt>
      <trkpt lat="43.610190" lon="1.416072">
        <ele>124.4</ele>
        <time>2015-07-26T15:47:52Z</time>
      </trkpt>
      <trkpt lat="43.610178" lon="1.415944">
        <ele>125.0</ele>
        <time>2015-07-26T15:48:00Z</time>
      </trkpt>
      <trkpt lat="43.610213" lon="1.415800">
        <ele>126.2</ele>
        <time>2015-07-26T15:48:08Z</time>
      </trkpt>
      <trkpt lat="43.610253" lon="1.415726">
        <ele>128.0</ele>
        <time>2015-07-26T15:48:54Z</time>
      </trkpt>
      <trkpt lat="43.610300" lon="1.415618">
        <ele>128.4</ele>
        <time>2015-07-26T15:49:02Z</time>
      </trkpt>
      <trkpt lat="43.610315" lon="1.415494">
        <ele>129.2</ele>
        <time>2015-07-26T15:49:12Z</time>
      </trkpt>
      <trkpt lat="43.610385" lon="1.415400">
        <ele>129.9</ele>
        <time>2015-07-26T15:49:21Z</time>
      </trkpt>
      <trkpt lat="43.610446" lon="1.415321">
        <ele>132.0</ele>
        <time>2015-07-26T15:49:48Z</time>
      </trkpt>
    </trkseg>
  </trk>
</gpx>

